createdAt,value
2017-02-23T04:42:47.277Z,99.99
2017-02-23T04:43:27.722Z,99.99
2017-02-23T04:44:08.172Z,99.99
2017-02-23T04:44:48.601Z,99.99
2017-02-23T04:45:29.029Z,99.99
2017-02-23T04:46:09.470Z,99.99
2017-02-23T04:46:49.997Z,99.99
2017-02-23T04:47:30.372Z,99.99
2017-02-23T04:48:10.812Z,99.99
2017-02-23T04:48:51.262Z,99.99
2017-02-23T04:49:31.712Z,99.99
2017-02-23T04:50:12.166Z,99.99
2017-02-23T04:50:52.545Z,99.99
2017-02-23T04:51:33.017Z,99.99
2017-02-23T04:52:13.460Z,99.99
2017-02-23T04:52:53.932Z,99.99
2017-02-23T04:53:34.403Z,99.99
2017-02-23T04:54:14.869Z,99.99
2017-02-23T04:54:55.313Z,99.99
2017-02-23T04:55:35.742Z,99.99
2017-02-23T04:56:16.185Z,99.99
2017-02-23T04:56:56.665Z,99.99
2017-02-23T04:57:37.162Z,99.99
2017-02-23T04:58:17.541Z,99.99
2017-02-23T04:58:57.974Z,99.99
2017-02-23T04:59:38.476Z,99.99
2017-02-23T05:00:18.927Z,99.99
2017-02-23T05:00:59.363Z,99.99
2017-02-23T05:01:39.791Z,99.99
2017-02-23T05:02:20.202Z,99.99
2017-02-23T05:03:00.690Z,99.99
2017-02-23T05:03:41.140Z,99.99
2017-02-23T05:04:21.596Z,99.99
2017-02-23T05:05:01.996Z,99.99
2017-02-23T05:05:42.446Z,99.99
2017-02-23T05:06:22.845Z,99.99
2017-02-23T05:07:03.286Z,99.99
2017-02-23T05:07:43.806Z,99.99
2017-02-23T05:08:24.257Z,99.99
2017-02-23T05:09:04.720Z,99.99
2017-02-23T05:09:45.157Z,99.99
2017-02-23T05:10:25.612Z,99.99
2017-02-23T05:11:06.037Z,99.99
2017-02-23T05:11:46.480Z,99.99
2017-02-23T05:12:26.890Z,99.99
2017-02-23T05:13:07.379Z,99.99
2017-02-23T05:13:47.829Z,99.99
2017-02-23T05:14:28.222Z,99.99
2017-02-23T05:15:08.702Z,99.99
2017-02-23T05:15:49.158Z,99.99
2017-02-23T05:16:29.568Z,99.99
2017-02-23T05:17:09.969Z,99.99
2017-02-23T05:17:50.466Z,99.99
2017-02-23T05:18:30.880Z,99.99
2017-02-23T05:19:11.376Z,99.99
2017-02-23T05:19:51.767Z,99.99
2017-02-23T05:20:32.230Z,99.99
2017-02-23T05:21:12.681Z,99.99
2017-02-23T05:21:53.144Z,99.99
2017-02-23T05:22:33.584Z,99.99
2017-02-23T05:23:13.985Z,99.99
2017-02-23T05:23:54.382Z,99.99
2017-02-23T05:24:34.874Z,99.99
2017-02-23T05:25:15.359Z,99.99
2017-02-23T05:25:55.865Z,99.99
2017-02-23T05:26:36.303Z,99.99
2017-02-23T05:27:16.794Z,99.99
2017-02-23T05:27:57.252Z,99.99
2017-02-23T05:28:37.801Z,99.99
2017-02-23T05:29:18.309Z,99.99
2017-02-23T05:29:58.793Z,99.99
2017-02-23T05:30:39.263Z,99.99
2017-02-23T05:31:19.713Z,99.99
2017-02-23T05:32:00.220Z,99.99
2017-02-23T05:32:40.697Z,99.99
2017-02-23T05:33:21.143Z,99.99
2017-02-23T05:34:01.555Z,99.99
2017-02-23T05:34:41.976Z,99.99
2017-02-23T05:35:22.502Z,99.99
2017-02-23T05:36:02.969Z,99.99
2017-02-23T05:36:43.411Z,99.99
2017-02-23T05:37:23.860Z,99.99
2017-02-23T05:38:04.305Z,99.99
2017-02-23T05:38:44.759Z,99.99
2017-02-23T05:39:25.204Z,99.99
2017-02-23T05:40:05.617Z,99.99
2017-02-23T05:40:46.010Z,99.99
2017-02-23T05:41:26.460Z,99.99
2017-02-23T05:42:06.909Z,99.99
2017-02-23T05:42:47.352Z,99.99
2017-02-23T05:43:27.801Z,99.99
2017-02-23T05:44:08.221Z,99.99
2017-02-23T05:44:48.660Z,99.99
2017-02-23T05:45:29.239Z,99.99
2017-02-23T05:46:09.696Z,99.99
2017-02-23T05:46:50.080Z,99.99
2017-02-23T05:47:30.532Z,99.99
2017-02-23T05:48:10.964Z,99.99
2017-02-23T05:48:51.407Z,99.99
2017-02-23T05:49:31.858Z,99.99
2017-02-23T05:50:12.333Z,99.99
2017-02-23T05:50:52.793Z,99.99
2017-02-23T05:51:33.197Z,99.99
2017-02-23T05:52:13.597Z,99.99
2017-02-23T05:52:54.159Z,99.99
2017-02-23T05:53:34.526Z,99.99
2017-02-23T05:54:14.991Z,99.99
2017-02-23T05:54:55.395Z,99.99
2017-02-23T05:55:35.882Z,99.99
2017-02-23T05:56:16.292Z,99.99
2017-02-23T05:56:56.663Z,99.99
2017-02-23T05:57:37.064Z,99.99
2017-02-23T05:58:17.530Z,99.99
2017-02-23T05:58:58.006Z,99.99
2017-02-23T05:59:38.450Z,99.99
2017-02-23T06:00:18.843Z,99.99
2017-02-23T06:00:59.254Z,99.99
2017-02-23T06:01:39.726Z,99.99
2017-02-23T06:02:20.199Z,99.99
2017-02-23T06:03:00.664Z,99.99
2017-02-23T19:01:28.127Z,99.99
2017-02-23T19:02:08.588Z,99.99
2017-02-23T19:02:49.226Z,99.99
2017-02-23T19:03:29.611Z,99.99
2017-02-23T19:04:10.028Z,99.99
2017-02-23T19:04:50.445Z,99.99
2017-02-23T19:05:30.878Z,99.99
2017-02-23T19:06:11.278Z,99.99
2017-02-23T19:06:51.668Z,99.99
2017-02-23T19:07:32.060Z,99.99
2017-02-23T19:08:12.735Z,99.99
2017-02-23T19:08:53.098Z,99.99
2017-02-23T19:09:33.509Z,99.99
2017-02-23T19:10:14.138Z,99.99
2017-02-23T19:10:54.553Z,99.99
2017-02-23T19:11:35.213Z,99.99
2017-02-23T19:12:15.657Z,99.99
2017-02-23T19:12:56.092Z,99.99
2017-02-23T19:13:36.641Z,99.99
2017-02-23T19:14:17.058Z,99.99
2017-02-23T19:14:57.906Z,99.99
2017-02-23T19:15:38.267Z,99.99
2017-02-23T19:16:18.720Z,99.99
2017-02-23T19:16:59.083Z,99.99
2017-02-23T19:17:39.688Z,99.99
2017-02-23T19:18:20.138Z,99.99
2017-02-23T19:19:00.575Z,99.99
2017-02-23T19:19:41.963Z,99.99
2017-02-23T19:20:25.920Z,99.99
2017-02-23T19:21:07.969Z,99.99
2017-02-23T19:21:54.333Z,99.99
2017-02-23T19:22:34.787Z,99.99
2017-02-23T19:23:15.294Z,99.99
2017-02-23T19:23:55.768Z,99.99
2017-02-23T19:24:38.960Z,99.99
2017-02-23T19:25:19.398Z,99.99
2017-02-23T19:25:59.836Z,99.99
2017-02-23T19:26:40.258Z,99.99
2017-02-23T20:01:53.852Z,99.99
2017-02-23T20:02:34.307Z,99.99
2017-02-23T20:03:14.797Z,99.99
2017-02-23T20:03:55.175Z,99.99
2017-02-23T20:04:35.674Z,99.99
2017-02-23T20:05:16.095Z,99.99
2017-02-23T20:05:56.547Z,99.99
2017-02-23T20:06:37.016Z,99.99
2017-02-23T20:07:17.624Z,99.99
2017-02-23T20:07:58.033Z,99.99
2017-02-23T20:08:38.444Z,99.99
2017-02-23T20:09:18.932Z,99.99
2017-02-23T20:09:59.376Z,99.99
2017-02-23T20:10:39.961Z,99.99
2017-02-23T20:11:20.601Z,99.99
2017-02-23T20:12:01.108Z,99.99
2017-02-23T20:12:41.560Z,99.99
2017-02-23T20:13:22.144Z,99.99
2017-02-23T20:14:02.504Z,99.99
2017-02-23T20:14:42.889Z,99.99
2017-02-23T20:15:23.695Z,99.99
2017-02-23T20:16:04.173Z,99.99
2017-02-23T20:16:44.610Z,99.99
2017-02-23T20:17:25.037Z,99.99
2017-02-23T20:18:05.447Z,99.99
2017-02-23T20:18:45.832Z,99.99
2017-02-23T20:19:26.273Z,99.99
2017-02-23T20:20:06.723Z,99.99
2017-02-23T20:20:47.167Z,99.99
2017-02-23T20:21:27.544Z,99.99
2017-02-23T20:22:07.969Z,99.99
2017-02-23T20:37:31.453Z,99.99
2017-02-23T20:38:11.997Z,99.99
2017-02-23T20:38:52.458Z,99.99
2017-02-23T20:39:32.956Z,99.99
2017-02-23T20:40:13.565Z,99.99
2017-02-23T20:40:54.071Z,99.99
2017-02-23T20:41:34.557Z,99.99
2017-02-23T20:42:15.010Z,99.99
2017-02-23T20:42:55.487Z,99.99
2017-02-23T20:43:35.957Z,99.99
2017-02-23T20:44:16.393Z,99.99
2017-02-23T20:44:56.876Z,99.99
2017-02-23T20:45:37.310Z,99.99
2017-02-23T20:46:17.759Z,99.99
2017-02-23T20:46:58.247Z,99.99
2017-02-23T20:47:38.727Z,99.99
2017-02-23T20:48:19.168Z,99.99
2017-02-23T20:48:59.601Z,99.99
2017-02-23T20:49:40.058Z,99.99
2017-02-23T20:50:20.514Z,99.99
2017-02-23T20:51:00.952Z,99.99
2017-02-23T20:51:41.436Z,99.99
2017-02-23T20:52:21.873Z,99.99
2017-02-23T20:53:02.280Z,99.99
2017-02-23T20:53:42.687Z,99.99
2017-02-23T20:54:23.137Z,99.99
2017-02-23T20:55:03.580Z,99.99
2017-02-23T20:55:44.024Z,99.99
2017-02-23T20:56:24.462Z,99.99
2017-02-23T20:57:04.854Z,99.99
2017-02-23T20:57:45.322Z,99.99
2017-02-23T20:58:25.772Z,99.99
2017-02-23T20:59:09.357Z,99.99
2017-02-23T20:59:49.375Z,99.99
2017-02-23T21:00:29.866Z,99.99
2017-02-23T21:01:10.391Z,99.99
2017-02-23T21:01:50.768Z,99.99
2017-02-23T21:02:31.193Z,99.99
2017-02-23T21:03:11.745Z,99.99
2017-02-23T21:03:52.190Z,99.99
2017-02-23T21:04:32.674Z,99.99
2017-02-23T21:05:13.098Z,99.99
2017-02-23T21:05:53.539Z,99.99
2017-02-23T21:06:34.008Z,99.99
2017-02-23T21:07:14.535Z,99.99
2017-02-23T21:07:54.894Z,99.99
2017-02-23T21:08:35.651Z,99.99
2017-02-23T21:09:16.087Z,99.99
2017-02-23T21:09:56.540Z,99.99
2017-02-23T21:10:36.988Z,99.99
2017-02-23T21:11:17.412Z,99.99
2017-02-23T21:11:57.809Z,99.99
2017-02-23T21:12:38.279Z,99.99
2017-02-23T21:13:18.785Z,99.99
2017-02-23T21:13:59.212Z,99.99
2017-02-23T21:14:39.676Z,99.99
2017-02-23T21:15:20.105Z,99.99
2017-02-23T21:16:00.566Z,99.99
2017-02-23T21:16:41.026Z,99.99
2017-02-23T21:17:21.434Z,99.99
2017-02-23T21:18:01.923Z,99.99
2017-02-23T21:18:42.299Z,99.99
2017-02-23T21:19:22.743Z,99.99
2017-02-23T21:20:03.321Z,99.99
2017-02-23T21:20:43.773Z,99.99
2017-02-23T21:21:24.157Z,99.99
2017-02-23T21:22:04.655Z,99.99
2017-02-23T21:22:45.172Z,99.99
2017-02-23T21:23:25.672Z,99.99
2017-02-23T21:24:06.147Z,99.99
2017-02-23T21:30:51.499Z,99.99
2017-02-23T21:31:32.469Z,99.99
2017-02-23T21:32:12.857Z,99.99
2017-02-23T21:32:53.384Z,99.99
2017-02-23T21:33:33.784Z,99.99
2017-02-23T21:34:14.240Z,99.99
2017-02-23T21:34:54.670Z,99.99
2017-02-23T21:35:35.122Z,99.99
2017-02-23T21:36:15.512Z,99.99
2017-02-23T21:36:55.979Z,99.82
2017-02-23T21:37:36.464Z,99.99
2017-02-23T21:38:17.033Z,99.99
2017-02-23T21:38:57.465Z,99.82
2017-02-23T21:39:37.956Z,99.99
2017-02-23T21:40:18.405Z,99.82
2017-02-23T21:40:59.027Z,99.82
2017-02-23T21:41:39.433Z,99.99
2017-02-23T21:42:19.892Z,99.82
2017-02-23T21:43:00.282Z,99.82
2017-02-23T21:43:40.699Z,99.82
2017-02-23T21:44:21.157Z,99.82
2017-02-23T21:45:01.619Z,99.99
2017-02-23T21:45:42.042Z,99.99
2017-02-23T21:46:22.419Z,99.91
2017-02-23T21:47:02.981Z,99.16
2017-02-23T21:47:43.355Z,99.54
2017-02-23T21:48:23.769Z,99.82
2017-02-23T21:49:04.294Z,99.44
2017-02-23T21:49:44.704Z,98.97
2017-02-23T21:50:25.180Z,98.78
2017-02-23T21:51:05.608Z,98.68
2017-02-23T21:51:46.074Z,99.16
2017-02-23T21:52:26.485Z,99.44
2017-02-23T21:53:06.893Z,99.06
2017-02-23T21:53:47.452Z,98.97
2017-02-23T21:54:27.868Z,98.59
2017-02-23T22:01:08.875Z,97.5
2017-02-23T22:01:50.270Z,97.97
2017-02-23T22:02:30.686Z,98.35
2017-02-23T22:03:11.175Z,98.26
2017-02-23T22:03:51.556Z,98.07
2017-02-23T22:04:32.011Z,98.35
2017-02-23T22:05:12.486Z,98.07
2017-02-23T22:05:52.950Z,97.97
2017-02-23T22:06:33.468Z,98.16
2017-02-23T22:07:13.949Z,97.97
2017-02-23T22:07:54.462Z,98.07
2017-02-23T22:08:34.932Z,97.97
2017-02-23T22:09:15.424Z,98.07
2017-02-23T22:09:55.835Z,97.88
2017-02-23T22:10:36.272Z,98.02
2017-02-23T22:11:16.740Z,98.02
2017-02-23T22:11:57.250Z,98.21
2017-02-23T22:12:37.689Z,98.11
2017-02-23T22:13:18.116Z,98.11
2017-02-23T22:13:58.612Z,98.4
2017-02-23T22:14:39.108Z,98.59
2017-02-23T22:15:19.596Z,98.21
2017-02-23T22:16:00.060Z,99.06
2017-02-23T22:16:40.460Z,98.59
2017-02-23T22:17:20.967Z,98.97
2017-02-23T22:18:01.410Z,99.06
2017-02-23T22:18:41.874Z,98.87
2017-02-23T22:19:22.300Z,98.97
2017-02-23T22:20:02.659Z,99.06
2017-02-23T22:20:43.124Z,99.4
2017-02-23T22:21:23.530Z,99.49
2017-02-23T22:22:04.120Z,99.4
2017-02-23T22:22:44.655Z,99.4
2017-02-23T22:23:25.114Z,99.11
2017-02-23T22:24:05.531Z,99.4
2017-02-23T22:24:45.974Z,99.21
2017-02-23T22:25:26.374Z,99.21
2017-02-23T22:26:06.822Z,98.83
2017-02-23T22:26:47.301Z,98.83
2017-02-23T22:27:27.727Z,99.11
2017-02-23T22:28:08.178Z,99.11
2017-02-23T22:28:48.664Z,99.02
2017-02-23T22:29:29.160Z,99.11
2017-02-23T22:30:09.830Z,98.64
2017-02-23T22:30:50.324Z,98.54
2017-02-23T22:31:30.781Z,99.02
2017-02-23T22:32:11.214Z,98.26
2017-02-23T22:32:51.720Z,98.45
2017-02-23T22:33:32.120Z,98.16
2017-02-23T22:34:12.560Z,98.45
2017-02-23T22:34:53.054Z,97.97
2017-02-23T22:35:33.481Z,97.6
2017-02-23T22:36:13.961Z,97.78
2017-02-23T22:36:54.362Z,98.16
2017-02-23T22:37:34.810Z,98.26
2017-02-23T22:38:15.272Z,98.07
2017-02-23T22:38:55.737Z,97.97
2017-02-23T22:39:36.163Z,98.07
2017-02-23T22:40:16.631Z,98.07
2017-02-23T22:40:57.115Z,98.07
2017-02-23T22:41:37.547Z,97.41
2017-02-23T22:42:17.944Z,97.69
2017-02-23T22:42:58.385Z,96.83
2017-02-23T22:43:38.773Z,95.12
2017-02-23T22:44:19.237Z,95.03
2017-02-23T22:45:00.396Z,95.79
2017-02-23T22:45:40.799Z,95.51
2017-02-23T22:46:21.336Z,95.79
2017-02-23T22:47:01.734Z,95.98
2017-02-23T22:47:42.124Z,96.83
2017-02-23T22:48:22.569Z,96.55
2017-02-23T22:49:03.010Z,96.64
2017-02-23T22:49:43.404Z,96.64
2017-02-23T22:50:23.802Z,96.26
2017-02-23T22:51:04.231Z,95.7
2017-02-23T22:51:44.614Z,95.89
2017-02-23T22:52:25.151Z,95.89
2017-02-23T22:53:05.626Z,95.98
2017-02-23T22:53:46.044Z,95.41
2017-02-23T22:54:26.564Z,95.41
2017-02-23T22:55:06.969Z,95.89
2017-02-23T22:55:47.391Z,95.6
2017-02-23T22:56:27.830Z,95.12
2017-02-23T22:57:08.277Z,94.93
2017-02-23T22:57:48.760Z,95.51
2017-02-23T22:58:29.090Z,95.03
2017-02-23T22:59:09.505Z,95.51
2017-02-23T22:59:49.986Z,95.31
2017-02-23T23:00:30.457Z,95.79
2017-02-23T23:01:10.820Z,95.51
2017-02-23T23:01:51.248Z,94.18
2017-02-23T23:02:31.758Z,94.56
2017-02-23T23:03:12.224Z,94.93
2017-02-23T23:03:52.629Z,95.12
2017-02-23T23:04:33.042Z,94.46
2017-02-23T23:05:13.447Z,94.46
2017-02-23T23:05:53.861Z,94.37
2017-02-23T23:06:34.298Z,94.27
2017-02-23T23:07:14.677Z,93.04
2017-02-23T23:07:55.156Z,93.04
2017-02-23T23:08:35.604Z,93.41
2017-02-23T23:09:16.054Z,93.89
2017-02-23T23:09:56.494Z,93.23
2017-02-23T23:10:36.956Z,92.94
2017-02-23T23:11:17.353Z,93.13
